createdAt,value
2022-11-12T00:01:06.521Z,88.50
2022-11-12T00:03:33.399Z,88.70
2022-11-12T00:06:00.238Z,88.70
2022-11-12T00:08:27.397Z,88.80
2022-11-12T00:10:54.468Z,88.70
2022-11-12T00:13:21.329Z,88.80
2022-11-12T00:15:48.204Z,88.90
2022-11-12T00:18:15.074Z,88.90
2022-11-12T00:20:41.999Z,88.90
2022-11-12T00:23:08.816Z,88.80
2022-11-12T00:25:35.819Z,88.90
2022-11-12T00:28:05.074Z,88.90
2022-11-12T00:30:31.998Z,88.90
2022-11-12T00:33:02.779Z,89.00
2022-11-12T00:35:33.498Z,89.00
2022-11-12T00:38:01.281Z,89.00
2022-11-12T00:40:28.965Z,89.00
2022-11-12T00:42:55.851Z,89.00
2022-11-12T00:45:23.407Z,89.00
2022-11-12T00:47:50.561Z,89.00
2022-11-12T00:50:17.594Z,89.00
2022-11-12T00:52:44.653Z,89.10
2022-11-12T00:55:11.905Z,89.20
2022-11-12T00:57:38.962Z,89.20
2022-11-12T01:00:07.013Z,89.30
2022-11-12T01:02:42.270Z,89.40
2022-11-12T01:05:10.847Z,89.30
2022-11-12T01:07:37.701Z,89.30
2022-11-12T01:10:05.081Z,89.30
2022-11-12T01:12:32.583Z,89.30
2022-11-12T01:14:59.601Z,89.30
2022-11-12T01:17:26.455Z,89.40
2022-11-12T01:19:53.342Z,89.40
2022-11-12T01:22:20.225Z,89.40
2022-11-12T01:24:47.043Z,89.40
2022-11-12T01:27:14.374Z,89.30
2022-11-12T01:29:41.306Z,89.40
2022-11-12T01:32:08.396Z,89.40
2022-11-12T01:34:35.330Z,89.40
2022-11-12T01:37:02.248Z,89.40
2022-11-12T01:39:29.180Z,89.40
2022-11-12T01:41:56.069Z,89.30
2022-11-12T01:44:27.093Z,89.30
2022-11-12T01:47:25.553Z,89.30
2022-11-12T01:49:57.188Z,89.20
2022-11-12T01:52:39.189Z,89.20
2022-11-12T01:55:11.226Z,89.20
2022-11-12T01:57:45.539Z,89.20
2022-11-12T02:00:13.411Z,89.20
2022-11-12T02:02:40.846Z,89.20
2022-11-12T02:05:10.029Z,89.20
2022-11-12T02:07:39.757Z,89.10
2022-11-12T02:10:08.299Z,89.10
2022-11-12T02:12:54.343Z,89.10
2022-11-12T02:15:21.285Z,89.10
2022-11-12T02:17:48.309Z,89.20
2022-11-12T02:20:15.511Z,89.20
2022-11-12T02:22:42.575Z,89.20
2022-11-12T02:25:14.969Z,89.20
2022-11-12T02:27:42.473Z,89.30
2022-11-12T02:30:09.768Z,89.40
2022-11-12T02:32:36.652Z,89.50
2022-11-12T02:35:03.615Z,90.00
2022-11-12T02:37:30.467Z,89.50
2022-11-12T02:39:57.445Z,89.60
2022-11-12T02:42:24.229Z,89.60
2022-11-12T02:44:51.303Z,89.70
2022-11-12T02:47:18.142Z,89.80
2022-11-12T02:49:45.030Z,89.90
2022-11-12T02:52:11.988Z,89.90
2022-11-12T02:54:38.951Z,90.00
2022-11-12T02:57:05.789Z,90.00
2022-11-12T02:59:32.649Z,90.00
2022-11-12T03:01:59.501Z,90.00
2022-11-12T03:04:26.289Z,90.00
2022-11-12T03:06:53.175Z,90.00
2022-11-12T03:09:20.024Z,90.00
2022-11-12T03:11:46.939Z,90.00
2022-11-12T03:14:13.871Z,90.00
2022-11-12T03:16:40.707Z,90.00
2022-11-12T03:19:07.578Z,90.10
2022-11-12T03:21:34.414Z,90.10
2022-11-12T03:24:02.053Z,90.10
2022-11-12T03:26:34.530Z,90.10
2022-11-12T03:29:02.952Z,90.10
2022-11-12T03:31:29.789Z,90.20
2022-11-12T03:33:56.775Z,90.10
2022-11-12T03:36:23.622Z,90.00
2022-11-12T03:38:50.527Z,90.00
2022-11-12T03:41:17.409Z,89.90
2022-11-12T03:43:44.259Z,89.90
2022-11-12T03:46:11.104Z,89.80
2022-11-12T03:48:37.922Z,89.80
2022-11-12T03:51:04.836Z,89.80
2022-11-12T03:53:31.679Z,89.70
2022-11-12T03:55:58.496Z,89.90
2022-11-12T03:58:25.694Z,89.90
2022-11-12T04:00:52.781Z,89.90
2022-11-12T04:03:19.712Z,89.80
2022-11-12T04:06:04.989Z,89.80
2022-11-12T04:08:37.768Z,89.80
2022-11-12T04:11:06.801Z,89.80
2022-11-12T04:13:33.726Z,89.70
2022-11-12T04:16:24.552Z,89.60
2022-11-12T04:19:20.207Z,89.70
2022-11-12T04:21:55.988Z,89.70
2022-11-12T04:24:53.651Z,89.70
2022-11-12T04:27:22.093Z,89.70
2022-11-12T04:30:08.830Z,89.60
2022-11-12T04:32:41.476Z,89.70
2022-11-12T04:35:09.817Z,89.60
2022-11-12T04:37:47.118Z,89.60
2022-11-12T04:40:43.990Z,89.70
2022-11-12T04:43:33.866Z,89.60
2022-11-12T04:46:01.791Z,89.60
2022-11-12T04:48:29.293Z,89.60
2022-11-12T04:50:59.364Z,89.70
2022-11-12T04:53:27.053Z,89.70
2022-11-12T04:55:56.071Z,89.50
2022-11-12T04:58:23.941Z,89.50
2022-11-12T05:00:51.763Z,89.50
2022-11-12T05:03:18.991Z,89.50
2022-11-12T05:05:45.814Z,89.60
2022-11-12T05:08:12.659Z,89.60
2022-11-12T05:10:39.551Z,89.60
2022-11-12T05:13:06.433Z,89.50
2022-11-12T05:15:33.317Z,89.60
2022-11-12T05:18:00.170Z,89.60
2022-11-12T05:20:27.050Z,89.60
2022-11-12T05:23:06.092Z,89.60
2022-11-12T05:25:34.460Z,89.70
2022-11-12T05:28:01.325Z,89.70
2022-11-12T05:30:28.177Z,89.70
2022-11-12T05:32:55.063Z,89.80
2022-11-12T05:35:21.881Z,89.90
2022-11-12T05:37:48.699Z,90.00
2022-11-12T05:40:15.662Z,90.00
2022-11-12T05:42:42.497Z,90.00
2022-11-12T05:45:09.754Z,90.00
2022-11-12T05:47:36.671Z,90.00
2022-11-12T05:50:03.698Z,90.00
2022-11-12T05:52:30.546Z,89.90
2022-11-12T05:54:57.367Z,89.90
2022-11-12T05:57:26.684Z,90.20
2022-11-12T05:59:53.487Z,89.80
2022-11-12T06:02:20.424Z,89.80
2022-11-12T06:04:47.296Z,89.80
2022-11-12T06:07:14.135Z,89.90
2022-11-12T06:09:41.029Z,90.00
2022-11-12T06:12:08.530Z,89.90
2022-11-12T06:14:35.416Z,89.90
2022-11-12T06:17:02.234Z,89.90
2022-11-12T06:19:29.121Z,89.80
2022-11-12T06:21:55.899Z,89.80
2022-11-12T06:24:22.813Z,89.80
2022-11-12T06:26:49.693Z,89.70
2022-11-12T06:29:16.561Z,89.70
2022-11-12T06:31:43.323Z,89.70
2022-11-12T06:34:12.517Z,89.70
2022-11-12T06:36:39.471Z,89.80
2022-11-12T06:39:06.440Z,89.80
2022-11-12T06:41:33.363Z,89.60
2022-11-12T06:44:00.186Z,89.70
2022-11-12T06:46:26.999Z,89.70
2022-11-12T06:48:53.838Z,89.70
2022-11-12T06:51:21.706Z,89.70
2022-11-12T06:53:48.780Z,89.60
2022-11-12T06:56:16.276Z,89.60
2022-11-12T06:58:43.477Z,89.80
2022-11-12T07:01:16.166Z,89.70
2022-11-12T07:03:44.262Z,89.70
2022-11-12T07:06:18.600Z,89.70
2022-11-12T07:08:46.412Z,89.70
2022-11-12T07:11:13.887Z,89.80
2022-11-12T07:13:40.726Z,89.80
2022-11-12T07:16:10.837Z,89.70
2022-11-12T07:18:38.638Z,89.70
2022-11-12T07:21:08.248Z,89.60
2022-11-12T07:23:36.642Z,89.60
2022-11-12T07:26:06.344Z,89.60
2022-11-12T07:28:34.145Z,89.60
2022-11-12T07:31:03.827Z,89.60
2022-11-12T07:33:31.245Z,89.70
2022-11-12T07:36:05.303Z,89.60
2022-11-12T07:38:34.605Z,89.60
2022-11-12T07:41:02.796Z,89.60
2022-11-12T07:43:31.113Z,89.60
2022-11-12T07:46:00.006Z,89.60
2022-11-12T07:48:27.451Z,89.70
2022-11-12T07:51:00.986Z,89.70
2022-11-12T07:53:28.281Z,89.90
2022-11-12T07:55:57.019Z,89.80
2022-11-12T07:58:24.927Z,89.70
2022-11-12T08:00:53.997Z,89.60
2022-11-12T08:03:20.961Z,89.60
2022-11-12T08:05:48.078Z,89.40
2022-11-12T08:08:14.911Z,89.40
2022-11-12T08:10:41.716Z,89.40
2022-11-12T08:13:08.780Z,89.40
2022-11-12T08:15:35.683Z,89.40
2022-11-12T08:18:02.593Z,89.50
2022-11-12T08:20:29.402Z,89.50
2022-11-12T08:23:00.132Z,89.50
2022-11-12T08:25:27.333Z,89.60
2022-11-12T08:27:59.389Z,89.60
2022-11-12T08:30:27.497Z,89.50
2022-11-12T08:33:04.091Z,89.50
2022-11-12T08:35:32.309Z,89.60
2022-11-12T08:38:04.757Z,90.00
2022-11-12T08:40:32.918Z,90.00
2022-11-12T08:43:04.392Z,90.00
2022-11-12T08:45:36.714Z,90.00
2022-11-12T08:48:16.440Z,90.00
2022-11-12T08:50:43.233Z,90.10
2022-11-12T08:53:12.645Z,90.10
2022-11-12T08:55:40.186Z,90.10
2022-11-12T08:58:07.257Z,90.10
2022-11-12T09:00:38.414Z,87.20
2022-11-12T09:03:07.009Z,86.10
2022-11-12T09:05:36.707Z,76.90
2022-11-12T09:08:07.455Z,76.20
2022-11-12T09:10:34.665Z,80.90
2022-11-12T09:13:02.021Z,82.10
2022-11-12T09:15:38.352Z,83.20
2022-11-12T09:18:08.332Z,83.60
2022-11-12T09:20:35.194Z,83.90
2022-11-12T09:23:11.762Z,84.10
2022-11-12T09:25:39.809Z,84.30
2022-11-12T09:28:15.328Z,84.60
2022-11-12T09:30:46.541Z,84.80
2022-11-12T09:33:25.713Z,85.00
2022-11-12T09:35:53.879Z,85.10
2022-11-12T09:38:22.287Z,85.30
2022-11-12T09:40:52.198Z,85.50
2022-11-12T09:43:34.914Z,85.70
2022-11-12T09:46:39.404Z,85.80
2022-11-12T09:49:24.197Z,86.00
2022-11-12T09:51:59.972Z,86.10
2022-11-12T09:54:28.372Z,86.20
2022-11-12T09:56:55.509Z,86.30
2022-11-12T09:59:26.582Z,87.00
2022-11-12T10:02:11.861Z,86.60
2022-11-12T10:04:44.884Z,86.70
2022-11-12T10:07:54.749Z,86.70
2022-11-12T10:10:34.599Z,86.90
2022-11-12T10:13:18.261Z,87.00
2022-11-12T10:16:13.461Z,87.20
2022-11-12T10:18:59.917Z,87.30
2022-11-12T10:21:50.214Z,87.20
2022-11-12T10:24:17.038Z,88.00
2022-11-12T10:26:44.947Z,87.60
2022-11-12T10:29:11.744Z,87.50
2022-11-12T10:31:39.025Z,87.40
2022-11-12T10:34:16.454Z,87.50
2022-11-12T10:36:52.988Z,87.40
2022-11-12T10:39:44.178Z,87.50
2022-11-12T10:42:16.474Z,87.60
2022-11-12T10:44:44.306Z,87.90
2022-11-12T10:47:30.398Z,87.80
2022-11-12T10:50:08.187Z,87.80
2022-11-12T10:52:35.955Z,87.90
2022-11-12T10:55:16.960Z,88.00
2022-11-12T10:57:44.413Z,88.10
2022-11-12T11:00:13.908Z,88.10
2022-11-12T11:02:54.948Z,88.10
2022-11-12T11:05:32.312Z,88.00
2022-11-12T11:07:59.129Z,88.10
2022-11-12T11:10:29.103Z,88.10
2022-11-12T11:13:22.335Z,88.10
2022-11-12T11:16:06.638Z,88.10
2022-11-12T11:18:37.327Z,88.10
2022-11-12T11:21:32.111Z,88.10
2022-11-12T11:24:28.359Z,88.00
2022-11-12T11:27:32.137Z,88.00
2022-11-12T11:30:14.921Z,87.90
2022-11-12T11:32:47.888Z,87.90
2022-11-12T11:35:24.814Z,88.10
2022-11-12T11:38:16.317Z,88.30
2022-11-12T11:41:20.632Z,88.40
2022-11-12T11:44:01.865Z,88.70
2022-11-12T11:46:50.328Z,88.70
2022-11-12T11:49:38.278Z,88.70
2022-11-12T11:52:12.731Z,88.50
2022-11-12T11:55:14.215Z,88.50
2022-11-12T11:57:57.844Z,88.50
2022-11-12T12:00:30.617Z,88.40
2022-11-12T12:03:15.186Z,88.40
2022-11-12T12:06:10.112Z,88.30
2022-11-12T12:08:53.440Z,88.40
2022-11-12T12:11:46.077Z,88.40
2022-11-12T12:14:44.909Z,88.30
2022-11-12T12:17:27.853Z,88.30
2022-11-12T12:20:17.707Z,88.30
2022-11-12T12:22:50.519Z,88.30
2022-11-12T12:25:23.441Z,88.20
2022-11-12T12:28:17.676Z,88.30
2022-11-12T12:30:50.936Z,88.20
2022-11-12T12:33:43.007Z,88.20
2022-11-12T12:36:17.554Z,88.20
2022-11-12T12:38:55.533Z,88.10
2022-11-12T12:41:30.394Z,88.10
2022-11-12T12:44:06.427Z,88.20
2022-11-12T12:46:44.448Z,88.20
2022-11-12T12:49:19.207Z,88.10
2022-11-12T12:51:47.085Z,88.10
2022-11-12T12:54:38.826Z,88.20
2022-11-12T12:57:25.684Z,88.10
2022-11-12T13:00:24.712Z,88.00
2022-11-12T13:02:52.356Z,88.00
2022-11-12T13:05:30.995Z,87.90
2022-11-12T13:08:03.048Z,87.80
2022-11-12T13:10:42.091Z,87.80
2022-11-12T13:13:30.707Z,88.00
2022-11-12T13:16:00.108Z,88.50
2022-11-12T13:18:39.750Z,88.60
2022-11-12T13:21:19.241Z,88.70
2022-11-12T13:24:06.478Z,88.60
2022-11-12T13:26:57.672Z,88.60
2022-11-12T13:29:28.395Z,88.60
2022-11-12T13:32:29.727Z,88.40
2022-11-12T13:35:12.009Z,88.40
2022-11-12T13:37:47.429Z,88.40
2022-11-12T13:40:30.024Z,88.30
2022-11-12T13:43:18.084Z,88.20
2022-11-12T13:45:55.270Z,88.20
2022-11-12T13:48:37.002Z,88.20
2022-11-12T13:51:12.980Z,88.00
2022-11-12T13:53:39.878Z,87.80
2022-11-12T13:56:07.113Z,87.70
2022-11-12T13:58:35.710Z,87.70
2022-11-12T14:01:05.052Z,87.60
2022-11-12T14:03:37.423Z,87.50
2022-11-12T14:06:16.043Z,87.50
2022-11-12T14:08:52.784Z,87.20
2022-11-12T14:11:36.980Z,87.00
2022-11-12T14:14:37.290Z,86.90
2022-11-12T14:17:22.013Z,86.80
2022-11-12T14:20:13.863Z,86.80
2022-11-12T14:22:42.645Z,86.60
2022-11-12T14:25:29.046Z,86.50
2022-11-12T14:27:56.630Z,86.50
2022-11-12T14:30:31.945Z,86.40
2022-11-12T14:33:07.553Z,86.60
2022-11-12T14:35:36.932Z,86.50
2022-11-12T14:38:09.793Z,86.60
2022-11-12T14:40:49.974Z,86.60
2022-11-12T14:43:45.326Z,86.70
2022-11-12T14:46:33.986Z,86.70
2022-11-12T14:49:18.193Z,86.80
2022-11-12T14:52:04.551Z,86.90
2022-11-12T14:54:40.057Z,87.00
2022-11-12T14:57:10.338Z,87.00
2022-11-12T14:59:37.246Z,87.10
2022-11-12T15:05:13.006Z,87.20
2022-11-12T15:08:02.996Z,87.20
2022-11-12T15:10:31.588Z,87.40
2022-11-12T15:13:09.182Z,87.40
2022-11-12T15:15:39.332Z,87.50
2022-11-12T15:18:21.609Z,87.60
2022-11-12T15:21:27.105Z,87.60
2022-11-12T15:24:01.568Z,87.80
2022-11-12T15:26:37.176Z,87.80
2022-11-12T15:29:28.886Z,87.80
2022-11-12T15:31:55.705Z,87.90
2022-11-12T15:34:43.409Z,88.00
2022-11-12T15:37:19.147Z,88.10
2022-11-12T15:39:50.512Z,88.10
2022-11-12T15:42:21.776Z,88.10
2022-11-12T15:44:48.891Z,88.10
2022-11-12T15:47:21.752Z,88.20
2022-11-12T15:49:53.522Z,88.20
2022-11-12T15:52:20.614Z,88.40
2022-11-12T15:54:47.690Z,88.30
2022-11-12T15:57:18.543Z,88.30
2022-11-12T15:59:46.346Z,88.40
2022-11-12T16:02:14.366Z,88.40
2022-11-12T16:04:41.293Z,88.30
2022-11-12T16:07:09.355Z,88.40
2022-11-12T16:09:36.356Z,88.50
2022-11-12T16:12:03.473Z,88.50
2022-11-12T16:14:30.840Z,88.50
2022-11-12T16:16:57.676Z,88.50
2022-11-12T16:19:24.493Z,88.50
2022-11-12T16:21:51.311Z,88.60
2022-11-12T16:24:18.112Z,88.50
2022-11-12T16:26:45.229Z,88.50
2022-11-12T16:29:13.773Z,88.60
2022-11-12T16:31:44.577Z,88.50
2022-11-12T16:34:12.170Z,88.60
2022-11-12T16:36:39.873Z,88.60
2022-11-12T16:39:06.772Z,88.60
2022-11-12T16:41:33.618Z,88.60
2022-11-12T16:44:00.566Z,88.60
2022-11-12T16:46:35.276Z,88.70
2022-11-12T16:49:03.396Z,88.70
2022-11-12T16:51:30.200Z,88.70
2022-11-12T16:53:57.067Z,88.70
2022-11-12T16:56:24.045Z,88.70
2022-11-12T16:58:50.860Z,88.70
2022-11-12T17:01:23.622Z,88.70
2022-11-12T17:03:51.647Z,88.80
2022-11-12T17:06:19.611Z,88.90
2022-11-12T17:08:48.153Z,89.40
2022-11-12T17:11:15.976Z,89.30
2022-11-12T17:13:43.827Z,89.20
2022-11-12T17:16:11.494Z,89.30
2022-11-12T17:18:38.764Z,89.50
2022-11-12T17:21:11.401Z,89.50
2022-11-12T17:23:38.682Z,84.30
2022-11-12T17:26:08.303Z,81.00
2022-11-12T17:28:35.409Z,78.70
2022-11-12T17:31:13.891Z,77.20
2022-11-12T17:33:42.930Z,75.40
2022-11-12T17:36:12.724Z,74.60
2022-11-12T17:38:39.972Z,74.50
2022-11-12T17:41:07.752Z,73.90
2022-11-12T17:43:34.910Z,73.00
2022-11-12T17:46:02.001Z,72.60
2022-11-12T17:48:31.327Z,72.10
2022-11-12T17:51:12.475Z,71.20
2022-11-12T17:53:39.915Z,70.70
2022-11-12T17:56:08.543Z,70.50
2022-11-12T17:58:35.636Z,70.30
2022-11-12T18:01:12.766Z,70.00
2022-11-12T18:03:41.423Z,69.80
2022-11-12T18:06:14.561Z,69.70
2022-11-12T18:08:42.046Z,69.50
2022-11-12T18:11:10.312Z,69.30
2022-11-12T18:13:37.445Z,69.40
2022-11-12T18:16:17.893Z,69.20
2022-11-12T18:18:44.741Z,69.10
2022-11-12T18:21:11.706Z,69.10
2022-11-12T18:23:43.895Z,68.90
2022-11-12T18:26:15.133Z,69.10
2022-11-12T18:28:42.585Z,68.80
2022-11-12T18:31:12.342Z,68.80
2022-11-12T18:33:39.384Z,68.90
2022-11-12T18:36:10.270Z,68.90
2022-11-12T18:38:37.439Z,68.90
2022-11-12T18:41:06.626Z,68.70
2022-11-12T18:43:33.579Z,68.50
2022-11-12T18:46:00.521Z,68.40
2022-11-12T18:48:29.100Z,68.40
2022-11-12T18:51:04.256Z,68.40
2022-11-12T18:53:31.204Z,68.20
2022-11-12T18:56:04.689Z,68.20
2022-11-12T18:58:35.144Z,68.30
2022-11-12T19:01:16.025Z,68.20
2022-11-12T19:03:44.043Z,68.10
2022-11-12T19:06:12.691Z,68.40
2022-11-12T19:08:40.108Z,69.30
2022-11-12T19:11:09.819Z,69.30
2022-11-12T19:13:37.263Z,68.30
2022-11-12T19:16:06.443Z,69.00
2022-11-12T19:18:33.784Z,69.20
2022-11-12T19:21:05.659Z,70.70
2022-11-12T19:23:32.713Z,70.80
2022-11-12T19:26:04.111Z,70.70
2022-11-12T19:28:31.418Z,72.30
2022-11-12T19:31:02.638Z,72.40
2022-11-12T19:33:29.623Z,74.30
2022-11-12T19:35:56.436Z,74.60
2022-11-12T19:38:23.300Z,74.40
2022-11-12T19:40:50.531Z,74.50
2022-11-12T19:43:17.411Z,75.00
2022-11-12T19:45:44.221Z,75.30
2022-11-12T19:48:11.087Z,75.40
2022-11-12T19:50:38.133Z,75.40
2022-11-12T19:53:04.923Z,75.60
2022-11-12T19:55:37.206Z,75.90
2022-11-12T19:58:08.039Z,76.20
2022-11-12T20:00:35.161Z,76.40
2022-11-12T20:03:02.060Z,76.60
2022-11-12T20:05:30.020Z,76.70
2022-11-12T20:07:56.802Z,76.80
2022-11-12T20:10:23.616Z,76.80
2022-11-12T20:12:50.413Z,77.00
2022-11-12T20:15:17.282Z,77.10
2022-11-12T20:17:44.156Z,77.30
2022-11-12T20:20:11.360Z,77.40
2022-11-12T20:22:38.163Z,77.50
2022-11-12T20:25:05.345Z,77.60
2022-11-12T20:27:32.249Z,77.70
2022-11-12T20:29:59.168Z,78.40
2022-11-12T20:32:25.974Z,78.50
2022-11-12T20:34:52.819Z,78.40
2022-11-12T20:37:19.712Z,78.60
2022-11-12T20:39:46.710Z,78.70
2022-11-12T20:42:13.598Z,79.00
2022-11-12T20:44:41.255Z,79.20
2022-11-12T20:47:08.096Z,79.30
2022-11-12T20:49:34.929Z,79.50
2022-11-12T20:52:01.728Z,79.80
2022-11-12T20:54:28.625Z,80.00
2022-11-12T20:56:56.163Z,80.20
2022-11-12T20:59:23.428Z,80.40
2022-11-12T21:01:50.417Z,80.50
2022-11-12T21:04:17.331Z,80.80
2022-11-12T21:06:44.225Z,80.90
2022-11-12T21:09:11.776Z,81.10
2022-11-12T21:11:38.693Z,81.30
2022-11-12T21:14:05.456Z,81.60
2022-11-12T21:16:32.513Z,81.60
2022-11-12T21:19:02.986Z,81.60
2022-11-12T21:21:31.598Z,81.80
2022-11-12T21:24:04.390Z,81.70
2022-11-12T21:26:31.863Z,82.00
2022-11-12T21:28:58.725Z,82.20
2022-11-12T21:31:32.629Z,82.20
2022-11-12T21:34:03.585Z,82.30
2022-11-12T21:36:35.511Z,82.20
2022-11-12T21:39:04.181Z,82.40
2022-11-12T21:41:33.965Z,82.40
2022-11-12T21:44:00.769Z,82.40
2022-11-12T21:46:30.179Z,82.50
2022-11-12T21:48:57.411Z,82.50
2022-11-12T21:51:26.792Z,82.50
2022-11-12T21:53:59.018Z,82.60
2022-11-12T21:56:26.805Z,82.60
2022-11-12T21:58:59.360Z,82.70
2022-11-12T22:01:28.938Z,82.60
2022-11-12T22:03:56.921Z,82.70
2022-11-12T22:06:28.293Z,82.80
2022-11-12T22:08:56.723Z,82.90
2022-11-12T22:11:24.295Z,83.10
2022-11-12T22:13:51.135Z,83.40
2022-11-12T22:16:20.390Z,83.50
2022-11-12T22:18:49.634Z,84.10
2022-11-12T22:21:23.018Z,84.30
2022-11-12T22:23:50.061Z,84.40
2022-11-12T22:26:23.151Z,84.90
2022-11-12T22:28:50.401Z,84.90
2022-11-12T22:31:27.508Z,85.40
2022-11-12T22:33:55.358Z,85.70
2022-11-12T22:36:23.692Z,85.70
2022-11-12T22:38:52.611Z,85.60
2022-11-12T22:41:21.851Z,85.80
2022-11-12T22:43:51.626Z,85.80
2022-11-12T22:46:20.742Z,85.90
2022-11-12T22:48:48.772Z,86.10
2022-11-12T22:51:24.569Z,86.60
2022-11-12T22:53:55.312Z,86.40
2022-11-12T22:56:23.272Z,87.00
2022-11-12T22:58:51.331Z,86.30
2022-11-12T23:01:21.485Z,86.40
2022-11-12T23:03:49.954Z,86.50
2022-11-12T23:06:17.578Z,86.50
2022-11-12T23:08:44.576Z,86.30
2022-11-12T23:11:17.446Z,87.00
2022-11-12T23:13:45.047Z,86.50
2022-11-12T23:16:14.769Z,86.30
2022-11-12T23:18:42.331Z,86.30
2022-11-12T23:21:14.808Z,86.30
2022-11-12T23:23:42.008Z,86.20
2022-11-12T23:26:15.319Z,86.30
2022-11-12T23:28:42.541Z,86.30
2022-11-12T23:31:15.244Z,86.20
2022-11-12T23:33:53.196Z,87.00
2022-11-12T23:36:22.013Z,86.40
2022-11-12T23:38:51.232Z,86.30
2022-11-12T23:41:22.764Z,86.30
2022-11-12T23:43:50.363Z,86.30
2022-11-12T23:46:17.502Z,86.40
2022-11-12T23:48:44.571Z,86.40
2022-11-12T23:51:20.192Z,86.40
2022-11-12T23:53:47.251Z,86.40
2022-11-12T23:56:16.903Z,86.60
2022-11-12T23:58:44.010Z,86.90
